This is the latest recevied weather packets stored in our database for station/object LRAR. If no packets are shown the sender has not sent any weather packets the latest 10 day(s).
| Time | Temp. | Humidity | Pressure | Rain* | Wind** | Luminosity | Snow |
|---|---|---|---|---|---|---|---|
| 1777672118 | 6.11° C | 57% | 1024 hPa | - | - | - | - |
| 1777671219 | 6.11° C | 57% | 1024 hPa | - | - | - | - |
| 1777670318 | 3.89° C | 70% | 1024 hPa | - | - | - | - |
| 1777669419 | 3.89° C | 70% | 1024 hPa | - | - | - | - |
| 1777668518 | 7.78° C | 53% | 1024 hPa | - | - | - | - |
| 1777667618 | 7.78° C | 53% | 1024 hPa | - | - | - | - |
| 1777666719 | 10° C | 47% | 1024 hPa | - | - | - | - |
| 1777665818 | 10° C | 47% | 1024 hPa | - | - | - | - |
| 1777664936 | 8.89° C | 46% | 1024 hPa | - | - | - | - |
| 1777664040 | 8.89° C | 46% | 1024 hPa | - | - | - | - |
| 1777663118 | 8.89° C | 54% | 1024 hPa | - | - | - | - |
| 1777662219 | 8.89° C | 54% | 1024 hPa | - | - | - | - |
| 1777661318 | 12.22° C | 41% | 1024 hPa | - | - | - | - |
| 1777660448 | 12.22° C | 41% | 1024 hPa | - | - | - | - |
| 1777659519 | 13.89° C | 33% | 1023 hPa | - | - | - | - |
| 1777658641 | 13.89° C | 33% | 1023 hPa | - | - | - | - |
| 1777657719 | 15° C | 31% | 1023 hPa | - | - | - | - |
| 1777656819 | 15° C | 31% | 1023 hPa | - | - | - | - |
| 1777655943 | 16.11° C | 29% | 1023 hPa | - | - | - | - |
| 1777655018 | 16.11° C | 29% | 1023 hPa | - | - | - | - |
| 1777654118 | 16.11° C | 29% | 1023 hPa | - | - | - | - |
| 1777653218 | 16.11° C | 29% | 1023 hPa | - | - | - | - |
| 1777652318 | 17.22° C | 30% | 1023 hPa | - | - | - | - |
| 1777651419 | 17.22° C | 30% | 1023 hPa | - | - | - | - |
| 1777650518 | 17.22° C | 27% | 1024 hPa | - | - | - | - |
* Rain since midnight (hover to see other rain measurements)
** Current wind speed in m/s (hover to see current wind gust speed)